Reno (UNR), Valley Road, Nevada Weather observations

Data are for observation ending at time listed.
 Day   Time    Ave.   Ave.  Ave.  Vector   Max.    Total    Solar   Rl      Baro.   Ave.  
  of    of     Air    Rel.  Wind   Wind    Wind   Precip.   Rad.    in      Pres.   Soil  
Year   Day     Temp.  Hum.  Speed  Dir.    Gust                                     Temp. 
2016   (PST)    F      %     mph   deg.    mph      in.     W/m2    W/m2     mb.     F   
-----------------------------------------------------------------------------------------
 239    2:20   55.1    46    1.2   300      1.9     0.00       0     317    857.7   76.6
 239    2:30   54.3    47    0.5   293      1.7     0.00       0     314    857.7   76.5
 239    2:40   55.4    44    2.9   260      4.8     0.00       0     311    857.8   76.4
 239    2:50   55.5    45    2.5   310      3.3     0.00       0     311    857.8   76.3
 239    3:00   54.6    45    2.2   284      3.3     0.00       0     311    857.9   76.1
 239    3:10   55.6    44    2.7   293      3.9     0.00       0     312    857.9   76.0
 239    3:20   54.2    47    1.5   332      2.7     0.00       0     311    858.0   75.9
 239    3:30   53.3    47    1.0   334      2.3     0.00       0     309    858.0   75.8
 239    3:40   52.3    52    1.6   350      2.3     0.00       0     311    858.1   75.6
 239    3:50   52.7    50    1.8   307      2.3     0.00       0     311    858.2   75.5
 239    4:00   51.9    51    2.3   324      3.1     0.00       0     309    858.2   75.4
 239    4:10   52.1    50    1.2   314      2.5     0.00       0     310    858.3   75.3
 239    4:20   52.1    51    2.0   300      2.7     0.00       0     309    858.3   75.1
 239    4:30   51.1    55    1.9   323      3.0     0.00       0     306    858.3   75.0
 239    4:40   51.8    51    2.0   315      2.8     0.00       0     308    858.4   74.9
 239    4:50   51.4    54    1.8   324      2.9     0.00       0     307    858.5   74.8
 239    5:00   51.0    55    1.2   324      1.7     0.00       0     307    858.6   74.7
 239    5:10   51.0    55    1.4   327      2.0     0.00       1     305    858.7   74.6
 239    5:20   51.1    55    1.9   321      2.9     0.00       2     307    858.8   74.4
 239    5:30   49.9    61    1.5   344      2.3     0.00       6     303    858.8   74.3
 239    5:40   50.1    58    1.7   322      2.5     0.00      14     302    858.9   74.2
 239    5:50   52.3    55    0.9   309      1.7     0.00      34     301    859.0   74.1
 239    6:00   53.5    54    2.1   326      2.9     0.00      62     303    859.0   74.0
 239    6:10   54.1    54    2.4   337      3.1     0.00      98     307    858.9   73.9
 239    6:20   56.3    49    1.0   309      1.9     0.00     133     308    858.8   73.8
 239    6:30   59.2    40    1.8   251      2.8     0.00     165     312    858.7   73.7
 239    6:40   61.2    36    0.9   320      1.7     0.00     190     316    858.7   73.6
 239    6:50   62.7    35    0.6   344      1.6     0.00     231     320    858.5   73.5
 239    7:00   62.8    37    1.6   358      2.2     0.00     264     321    858.3   73.4
 239    7:10   63.3    37    1.6    13      2.3     0.00     297     326    858.2   73.3
 239    7:20   64.5    35    1.6    20      2.9     0.00     330     333    858.2   73.2
 239    7:30   65.4    34    2.1    34      3.7     0.00     364     337    858.1   73.2
 239    7:40   66.6    32    1.1     7      2.4     0.00     398     336    858.0   73.1
 239    7:50   70.8    29    0.6   144      1.7     0.00     429     342    857.7   73.1
 239    8:00   71.4    27    1.2    27      3.0     0.00     463     349    857.6   73.2
 239    8:10   70.4    28    2.4    75      4.0     0.00     494     351    857.4   73.2
 239    8:20   69.9    28    2.4    54      4.3     0.00     528     352    857.2   73.3
 239    8:30   71.3    26    1.6   156      3.7     0.00     556     354    857.0   73.3
 239    8:40   72.3    27    1.9   357      3.7     0.00     587     356    856.9   73.4
 239    8:50   74.1    25    1.2    37      3.0     0.00     617     358    856.8   73.5
 239    9:00   73.8    25    2.3     0      4.7     0.00     648     361    856.6   73.6
 239    9:10   76.3    23    2.3   192      4.2     0.00     677     364    856.4   73.7
 239    9:20   76.3    24    2.2    26      3.9     0.00     707     367    856.2   73.8
 239    9:30   76.1    23    1.9    19      4.0     0.00     729     367    856.1   73.9
 239    9:40   79.0    21    1.5   147      4.0     0.00     750     371    855.9   74.0
 239    9:50   80.0    20    1.8   120      3.7     0.00     776     374    855.6   74.1
 239   10:00   80.7    18    1.4   337      4.1     0.00     797     377    855.4   74.1
 239   10:10   80.3    19    2.0     6      3.7     0.00     819     377    855.1   74.2
 239   10:20   80.4    20    2.8    29      6.2     0.00     832     384    854.8   74.4
 239   10:30   80.7    18    3.3    50      7.0     0.00     850     382    854.7   74.5
 239   10:40   81.9    15    3.0   127      7.3     0.00     871     381    854.5   74.7
 239   10:50   83.4    13    3.1   148      7.4     0.00     885     385    854.3   74.9
 239   11:00   84.4    13    3.2   163      6.7     0.00     899     386    854.1   75.1
 239   11:10   85.6    13    2.5   280      4.9     0.00     909     383    854.0   75.4
 239   11:20   83.6    15    3.2   329      5.4     0.00     917     384    853.8   75.7
 239   11:30   84.8    14    2.1   114      5.2     0.00     926     387    853.6   76.0
 239   11:40   85.5    12    3.3   249      6.8     0.00     929     392    853.5   76.4
 239   11:50   84.7    13    3.5   121      7.8     0.00     933     393    853.2   76.7
 239   12:00   85.5    13    5.6   139     10.4     0.00     929     394    853.0   77.1
 239   12:10   85.5    13    4.9   127     10.6     0.00     930     392    852.9   77.4
 239   12:20   86.1    14    5.8   135     12.5     0.00     934     395    852.8   77.8
 239   12:30   86.5    13    3.8   174      7.9     0.00     929     397    852.6   78.1
 239   12:40   87.6    14    5.9   149     10.8     0.00     923     403    852.4   78.5
 239   12:50   86.2    14    5.9   147     11.7     0.00     919     401    852.3   78.9
 239   13:00   87.2    15    5.8    51     10.8     0.00     915     406    852.2   79.2
 239   13:10   86.6    15    6.8    50     13.1     0.00     915     404    852.2   79.5
 239   13:20   85.7    16    7.8    44     14.3     0.00     915     405    852.1   79.8
 239   13:30   86.0    14    5.3    61     10.2     0.00     900     402    851.9   80.1
 239   13:40   86.8    14    4.6    49     10.3     0.00     901     406    851.8   80.4
 239   13:50   87.6    15    5.5    34     15.3     0.00     784     411    851.7   80.6
 239   14:00   85.8    15    6.1    31     10.6     0.00     865     408    851.6   80.8
 239   14:10   85.8    16    5.2     2     10.9     0.00     623     406    851.5   81.0
 239   14:20   87.7    15    3.6    42     11.7     0.00     661     409    851.4   81.1
 239   14:30   87.6    14    2.2   329      8.7     0.00     354     406    851.3   81.3
 239   14:40   86.9    14    4.5   313      8.5     0.00     789     413    851.2   81.5
 239   14:50   89.9    13    3.8   187     10.6     0.00     699     412    851.1   81.7
 239   15:00   89.0    13    4.8   232      8.3     0.00     242     412    851.0   81.8
 239   15:10   86.4    15    4.4   304     11.6     0.00     351     407    851.0   82.0
 239   15:20   86.9    15    8.2   311     16.4     0.00     700     410    851.0   82.1
 239   15:30   86.8    15    9.1   312     16.8     0.00     658     410    851.0   82.3
 239   15:40   88.0    13   10.0   247     18.5     0.00     588     403    851.0   82.4
 239   15:50   87.9    13    8.9   243     18.4     0.00     540     401    851.0   82.5
 239   16:00   87.9    14    8.3   261     15.5     0.00     497     398    851.1   82.6
 239   16:10   87.3    14    8.3   283     14.7     0.00     462     398    851.2   82.7
 239   16:20   86.6    14    8.8   268     17.5     0.00     429     396    851.2   82.8
 239   16:30   86.3    14    9.9   273     18.4     0.00     396     392    851.4   82.9
 239   16:40   85.8    14    9.8   262     15.7     0.00     363     391    851.5   83.0
 239   16:50   85.7    14    8.3   283     14.6     0.00     330     389    851.6   83.1
 239   17:00   85.4    14    9.2   266     18.1     0.00     298     386    851.6   83.2
 239   17:10   84.5    15   10.4   263     19.8     0.00     265     382    851.7   83.2
 239   17:20   84.2    15    9.1   277     18.6     0.00     233     381    851.8   83.2
 239   17:30   83.9    16    9.0   264     15.1     0.00     200     378    851.9   83.2
 239   17:40   83.3    16    9.3   268     17.7     0.00     166     376    852.0   83.2
 239   17:50   82.7    16    9.3   258     19.3     0.00     133     372    852.2   83.2
 239   18:00   82.0    17    9.0   263     15.9     0.00     101     372    852.4   83.2
 239   18:10   81.1    17    8.8   263     16.6     0.00      56     371    852.5   83.1
 239   18:20   80.4    18    9.5   264     17.7     0.00      36     368    852.8   83.1
 239   18:30   79.5    18    7.8   260     13.8     0.00      14     369    852.9   83.0
 239   18:40   78.9    19    8.5   264     17.5     0.00       7     368    853.1   82.9
 239   18:50   78.2    19    7.9   262     13.7     0.00       2     365    853.3   82.8
 239   19:00   77.8    19    8.7   270     15.5     0.00       1     366    853.5   82.7
 239   19:10   77.4    20    9.1   266     18.3     0.00       0     363    853.6   82.6
 239   19:20   76.9    20    9.3   270     17.4     0.00       0     360    853.8   82.5
 239   19:30   76.5    20    8.8   269     17.2     0.00       0     361    853.9   82.4
 239   19:40   76.4    21   11.8   273     19.3     0.00       0     362    854.1   82.3
 239   19:50   75.8    21    9.4   276     17.3     0.00       0     359    854.3   82.1
 239   20:00   75.5    22   10.0   280     18.8     0.00       0     357    854.4   82.0
 239   20:10   75.1    22    9.8   279     21.2     0.00       0     357    854.6   81.9
 239   20:20   74.8    22    8.6   279     17.7     0.00       0     356    854.8   81.8
 239   20:30   74.7    22    8.3   280     15.5     0.00       0     357    855.0   81.6
 239   20:40   74.3    23    7.4   306     14.7     0.00       0     358    855.2   81.5
 239   20:50   73.5    24    6.0   336     11.2     0.00       0     355    855.4   81.4
 239   21:00   73.4    23    7.2   339     17.6     0.00       0     355    855.5   81.2
 239   21:10   73.6    23    8.3   308     14.1     0.00       0     357    855.7   81.1
 239   21:20   73.8    22    9.0   322     14.7     0.00       0     358    855.8   81.0
 239   21:30   73.5    21    6.6   297     11.5     0.00       0     355    855.8   80.9
 239   21:40   73.1    21    5.2   300      9.4     0.00       0     354    856.0   80.7
 239   21:50   71.7    22    5.8   319      8.5     0.00       0     350    856.0   80.6
 239   22:00   71.1    22    6.5   323     11.8     0.00       0     348    856.1   80.5
 239   22:10   70.8    22    5.5   312      9.9     0.00       0     346    856.3   80.3
 239   22:20   70.8    22    3.7   303      7.3     0.00       0     348    856.4   80.2
 239   22:30   70.0    22    2.3   292      5.3     0.00       0     347    856.5   80.1
 239   22:40   70.1    23    3.0   300      7.2     0.00       0     347    856.6   80.0
 239   22:50   69.9    24    4.1   310      7.8     0.00       0     346    856.6   79.8
 239   23:00   69.8    23    5.1   314      9.5     0.00       0     345    856.7   79.7
 239   23:10   68.6    24    4.5    12      6.2     0.00       0     346    856.8   79.6
 239   23:20   67.6    25    4.1   321      9.2     0.00       0     342    856.7   79.4
 239   23:30   67.9    25    3.3   346      8.0     0.00       0     341    856.9   79.3
 239   23:40   67.5    25    2.3   260      5.4     0.00       0     341    857.0   79.2
 239   23:50   67.5    25    3.0   255      4.8     0.00       0     340    857.1   79.1
 240    0:00   66.6    26    1.8   250      3.5     0.00       0     341    857.1   78.9
 240    0:10   66.1    26    1.5   228      3.4     0.00       0     339    857.1   78.8
 240    0:20   64.3    29    2.1    55      3.4     0.00       0     334    857.2   78.7
 240    0:30   64.0    32    1.9    34      3.3     0.00       0     332    857.2   78.5
 240    0:40   62.5    31    2.0   294      4.6     0.00       0     332    857.4   78.4
 240    0:50   61.6    33    1.3   334      2.9     0.00       0     333    857.5   78.3
 240    1:00   61.1    33    1.0   279      4.2     0.00       0     330    857.5   78.2
 240    1:10   61.7    32    2.0   280      3.0     0.00       0     330    857.6   78.0
 240    1:20   61.5    34    1.4   132      2.6     0.00       0     330    857.8   77.9
 240    1:30   60.4    37    2.3     2      3.6     0.00       0     329    857.8   77.8
 240    1:40   59.7    37    2.3   299      3.5     0.00       0     327    858.0   77.7
 240    1:50   58.9    39    0.6   281      1.6     0.00       0     324    858.0   77.5
 240    2:00   57.9    40    0.9   297      2.0     0.00       0     320    858.2   77.4
 240    2:10   57.9    40    1.5   222      2.9     0.00       0     320    858.3   77.3

Return to Reno (UNR), Nevada graphs page.


Western Regional Climate Center,wrcc@dri.edu